createdAt,value
2019-03-03T00:01:01.668Z,99880.18
2019-03-03T00:03:32.541Z,99879.95
2019-03-03T00:06:01.848Z,99878.31
2019-03-03T00:08:31.183Z,99874.00
2019-03-03T00:11:00.509Z,99874.92
2019-03-03T00:13:30.036Z,99881.07
2019-03-03T00:15:59.402Z,99880.33
2019-03-03T00:18:28.800Z,99885.67
2019-03-03T00:20:58.176Z,99880.39
2019-03-03T00:23:27.537Z,99886.39
2019-03-03T00:25:56.936Z,99888.32
2019-03-03T00:28:26.205Z,99884.34
2019-03-03T00:30:55.553Z,99886.09
2019-03-03T00:33:24.985Z,99886.69
2019-03-03T00:35:54.373Z,99888.27
2019-03-03T00:38:30.127Z,99882.11
2019-03-03T00:41:04.261Z,99881.73
2019-03-03T00:43:39.499Z,99876.95
2019-03-03T00:46:16.901Z,99880.09
2019-03-03T00:48:52.232Z,99880.77
2019-03-03T00:51:42.719Z,99882.16
2019-03-03T00:54:18.965Z,99880.54
2019-03-03T00:56:57.389Z,99880.39
2019-03-03T00:59:31.785Z,99879.08
2019-03-03T01:02:06.060Z,99883.06
2019-03-03T01:04:42.487Z,99889.30
2019-03-03T01:07:16.957Z,99884.63
2019-03-03T01:09:52.719Z,99882.79
2019-03-03T01:12:59.681Z,99883.59
2019-03-03T01:15:35.147Z,99884.19
2019-03-03T01:18:15.477Z,99880.77
2019-03-03T01:21:06.138Z,99873.79
2019-03-03T01:23:47.100Z,99866.37
2019-03-03T01:26:16.441Z,99870.50
2019-03-03T01:28:45.752Z,99865.92
2019-03-03T01:31:15.148Z,99869.45
2019-03-03T01:33:44.433Z,99866.13
2019-03-03T01:36:14.182Z,99861.97
2019-03-03T01:38:43.560Z,99862.92
2019-03-03T01:41:13.447Z,99857.75
2019-03-03T01:43:42.853Z,99858.94
2019-03-03T01:46:12.168Z,99854.46
2019-03-03T01:48:41.479Z,99849.47
2019-03-03T01:51:10.816Z,99842.20
2019-03-03T01:53:40.836Z,99850.01
2019-03-03T01:56:10.290Z,99840.27
2019-03-03T01:58:39.617Z,99844.78
2019-03-03T02:01:08.922Z,99838.81
2019-03-03T02:03:38.321Z,99830.84
2019-03-03T02:06:08.244Z,99825.74
2019-03-03T02:08:38.263Z,99822.09
2019-03-03T02:11:07.572Z,99819.77
2019-03-03T02:13:36.936Z,99813.03
2019-03-03T02:16:06.296Z,99817.34
2019-03-03T02:18:35.635Z,99824.61
2019-03-03T02:21:04.959Z,99810.19
2019-03-03T02:23:34.455Z,99804.21
2019-03-03T02:26:05.784Z,99804.92
2019-03-03T02:28:35.183Z,99796.42
2019-03-03T02:31:05.280Z,99795.41
2019-03-03T02:33:35.424Z,99794.10
2019-03-03T02:36:04.807Z,99797.53
2019-03-03T02:38:34.137Z,99793.64
2019-03-03T02:41:03.472Z,99785.33
2019-03-03T02:43:39.303Z,99780.94
2019-03-03T02:46:08.581Z,99787.62
2019-03-03T02:48:37.954Z,99789.99
2019-03-03T02:51:07.293Z,99785.02
2019-03-03T02:53:36.645Z,99794.38
2019-03-03T02:56:05.985Z,99791.00
2019-03-03T02:58:36.305Z,99794.70
2019-03-03T03:01:10.546Z,99787.64
2019-03-03T03:03:40.078Z,99797.08
2019-03-03T03:06:17.114Z,99795.41
2019-03-03T03:08:51.608Z,99789.44
2019-03-03T03:11:27.896Z,99774.35
2019-03-03T03:14:12.836Z,99767.88
2019-03-03T03:16:48.991Z,99769.36
2019-03-03T03:19:26.446Z,99773.52
2019-03-03T03:22:01.861Z,99776.66
2019-03-03T03:24:36.430Z,99769.29
2019-03-03T03:27:16.812Z,99765.75
2019-03-03T03:31:54.273Z,99761.04
2019-03-03T03:34:28.022Z,99762.25
2019-03-03T03:37:04.760Z,99757.05
2019-03-03T03:39:41.206Z,99759.41
2019-03-03T03:42:18.485Z,99768.61
2019-03-03T03:44:56.043Z,99760.84
2019-03-03T03:47:40.106Z,99768.10
2019-03-03T03:50:16.577Z,99765.05
2019-03-03T03:52:51.002Z,99760.53
2019-03-03T03:55:30.292Z,99754.23
2019-03-03T03:58:04.677Z,99755.19
2019-03-03T04:00:40.558Z,99754.53
2019-03-03T04:06:16.747Z,99763.48
2019-03-03T04:08:55.555Z,99755.62
2019-03-03T04:11:31.987Z,99761.88
2019-03-03T04:14:09.392Z,99757.81
2019-03-03T04:16:43.661Z,99757.13
2019-03-03T04:19:18.066Z,99756.67
2019-03-03T04:21:56.545Z,99759.70
2019-03-03T04:24:30.050Z,99754.58
2019-03-03T04:27:07.372Z,99745.67
2019-03-03T04:29:42.893Z,99744.37
2019-03-03T04:32:17.275Z,99746.41
2019-03-03T04:34:57.533Z,99742.03
2019-03-03T04:37:31.991Z,99747.92
2019-03-03T04:40:10.406Z,99751.61
2019-03-03T04:42:48.811Z,99735.88
2019-03-03T04:46:21.180Z,99730.83
2019-03-03T04:48:57.625Z,99728.84
2019-03-03T04:51:30.993Z,99723.88
2019-03-03T04:55:06.335Z,99718.75
2019-03-03T04:57:48.724Z,99720.45
2019-03-03T05:00:25.021Z,99723.62
2019-03-03T05:02:59.757Z,99722.38
2019-03-03T05:05:34.244Z,99721.71
2019-03-03T05:08:08.501Z,99719.34
2019-03-03T05:10:45.747Z,99722.89
2019-03-03T05:13:21.090Z,99713.55
2019-03-03T05:16:25.937Z,99706.36
2019-03-03T05:18:58.384Z,99701.01
2019-03-03T05:21:28.541Z,99694.69
2019-03-03T05:23:57.901Z,99708.70
2019-03-03T05:26:27.148Z,99694.33
2019-03-03T05:28:56.548Z,99686.45
2019-03-03T05:31:25.850Z,99688.61
2019-03-03T05:33:55.234Z,99674.48
2019-03-03T05:36:24.559Z,99670.78
2019-03-03T05:38:53.910Z,99662.27
2019-03-03T05:41:23.264Z,99650.39
2019-03-03T05:43:52.571Z,99649.20
2019-03-03T05:46:21.913Z,99646.23
2019-03-03T05:48:51.235Z,99643.71
2019-03-03T05:51:20.568Z,99646.43
2019-03-03T05:53:49.912Z,99640.94
2019-03-03T05:56:19.816Z,99643.09
2019-03-03T05:58:49.199Z,99641.91
2019-03-03T06:01:18.553Z,99645.25
2019-03-03T06:03:47.908Z,99649.58
2019-03-03T06:06:17.391Z,99645.31
2019-03-03T06:08:46.776Z,99636.83
2019-03-03T06:11:16.065Z,99635.66
2019-03-03T06:13:45.499Z,99628.77
2019-03-03T06:16:14.817Z,99632.69
2019-03-03T06:18:44.635Z,99623.64
2019-03-03T06:21:13.980Z,99639.56
2019-03-03T06:23:43.313Z,99642.39
2019-03-03T06:26:12.678Z,99640.04
2019-03-03T06:28:42.084Z,99639.42
2019-03-03T06:31:11.462Z,99639.78
2019-03-03T06:33:41.289Z,99645.78
2019-03-03T06:36:11.599Z,99646.41
2019-03-03T06:38:40.912Z,99651.97
2019-03-03T06:41:10.208Z,99657.41
2019-03-03T06:43:40.068Z,99662.19
2019-03-03T06:46:09.428Z,99659.47
2019-03-03T06:48:38.832Z,99666.52
2019-03-03T06:51:08.135Z,99672.90
2019-03-03T06:53:37.456Z,99662.03
2019-03-03T06:56:06.733Z,99658.03
2019-03-03T06:58:36.072Z,99658.80
2019-03-03T07:01:05.400Z,99665.08
2019-03-03T07:03:34.708Z,99673.92
2019-03-03T07:06:04.132Z,99667.08
2019-03-03T07:08:33.422Z,99667.97
2019-03-03T07:11:02.779Z,99661.63
2019-03-03T07:13:32.206Z,99660.28
2019-03-03T07:16:01.551Z,99667.02
2019-03-03T07:18:30.827Z,99662.34
2019-03-03T07:21:00.127Z,99666.31
2019-03-03T07:23:29.421Z,99670.38
2019-03-03T07:25:58.752Z,99669.75
2019-03-03T07:28:28.075Z,99679.38
2019-03-03T07:30:57.429Z,99691.62
2019-03-03T07:33:31.113Z,99679.27
2019-03-03T07:36:00.406Z,99683.43
2019-03-03T07:38:29.771Z,99680.41
2019-03-03T07:40:59.049Z,99677.94
2019-03-03T07:43:28.436Z,99684.94
2019-03-03T07:45:57.815Z,99675.73
2019-03-03T07:48:27.124Z,99675.11
2019-03-03T07:50:56.441Z,99686.59
2019-03-03T07:53:26.660Z,99679.39
2019-03-03T07:55:56.843Z,99674.59
2019-03-03T07:58:26.181Z,99671.76
2019-03-03T08:00:55.509Z,99674.59
2019-03-03T08:03:24.760Z,99674.44
2019-03-03T08:05:54.193Z,99671.41
2019-03-03T08:08:23.537Z,99670.54
2019-03-03T08:10:52.875Z,99669.52
2019-03-03T08:13:23.108Z,99669.88
2019-03-03T08:15:52.387Z,99678.77
2019-03-03T08:18:21.760Z,99666.73
2019-03-03T08:20:51.083Z,99679.27
2019-03-03T08:23:20.444Z,99669.08
2019-03-03T08:25:56.511Z,99670.27
2019-03-03T08:28:25.843Z,99677.31
2019-03-03T08:30:55.856Z,99669.66
2019-03-03T08:33:25.260Z,99682.38
2019-03-03T08:35:55.298Z,99687.89
2019-03-03T08:38:25.723Z,99683.11
2019-03-03T08:40:55.036Z,99670.39
2019-03-03T08:43:28.439Z,99666.75
2019-03-03T08:46:04.794Z,99674.62
2019-03-03T08:48:55.654Z,99665.65
2019-03-03T08:51:29.006Z,99660.80
2019-03-03T08:54:04.267Z,99676.88
2019-03-03T08:56:41.605Z,99670.86
2019-03-03T08:59:16.027Z,99675.20
2019-03-03T09:01:49.462Z,99671.18
2019-03-03T09:04:23.895Z,99685.22
2019-03-03T09:06:57.389Z,99681.87
2019-03-03T09:09:32.137Z,99680.56
2019-03-03T09:14:12.937Z,99679.91
2019-03-03T09:16:48.310Z,99676.55
2019-03-03T09:19:20.682Z,99674.36
2019-03-03T09:21:55.047Z,99679.23
2019-03-03T09:26:31.756Z,99690.29
2019-03-03T09:29:06.523Z,99665.84
2019-03-03T09:31:41.210Z,99673.39
2019-03-03T09:36:19.903Z,99670.39
2019-03-03T09:40:59.641Z,99667.88
2019-03-03T09:43:35.883Z,99656.14
2019-03-03T09:46:15.146Z,99658.97
2019-03-03T09:48:55.408Z,99664.00
2019-03-03T09:51:30.661Z,99659.98
2019-03-03T09:54:04.721Z,99654.80
2019-03-03T09:56:46.073Z,99656.45
2019-03-03T09:59:20.508Z,99661.84
2019-03-03T10:01:55.871Z,99647.41
2019-03-03T10:04:34.089Z,99657.28
2019-03-03T10:07:39.664Z,99668.03
2019-03-03T10:10:14.365Z,99655.80
2019-03-03T10:12:49.879Z,99661.16
2019-03-03T10:15:28.277Z,99658.16
2019-03-03T10:18:11.642Z,99662.84
2019-03-03T10:20:45.123Z,99659.59
2019-03-03T10:23:50.059Z,99658.57
2019-03-03T10:26:54.691Z,99657.31
2019-03-03T10:30:32.021Z,99651.92
2019-03-03T10:33:12.296Z,99648.86
2019-03-03T10:35:45.651Z,99653.28
2019-03-03T10:38:20.561Z,99641.33
2019-03-03T10:40:58.867Z,99645.79
2019-03-03T10:43:37.285Z,99639.38
2019-03-03T10:48:17.524Z,99638.77
2019-03-03T10:50:52.845Z,99639.14
2019-03-03T10:54:24.730Z,99641.28
2019-03-03T10:57:00.147Z,99659.06
2019-03-03T10:59:37.114Z,99633.23
2019-03-03T11:02:12.506Z,99625.17
2019-03-03T11:04:45.964Z,99628.88
2019-03-03T11:07:22.341Z,99623.05
2019-03-03T11:09:57.589Z,99632.16
2019-03-03T11:12:33.066Z,99626.41
2019-03-03T11:17:14.319Z,99635.70
2019-03-03T11:19:48.704Z,99620.55
2019-03-03T11:22:22.198Z,99623.48
2019-03-03T11:25:06.539Z,99620.66
2019-03-03T11:27:40.705Z,99618.66
2019-03-03T11:30:17.245Z,99621.75
2019-03-03T11:32:50.628Z,99630.86
2019-03-03T11:35:34.027Z,99620.94
2019-03-03T11:38:08.735Z,99617.02
2019-03-03T11:40:46.061Z,99620.39
2019-03-03T11:43:22.555Z,99618.27
2019-03-03T11:48:04.532Z,99613.33
2019-03-03T11:50:37.153Z,99599.59
2019-03-03T11:53:11.894Z,99599.34
2019-03-03T11:55:48.324Z,99601.94
2019-03-03T11:58:29.616Z,99608.48
2019-03-03T12:01:03.254Z,99587.56
2019-03-03T12:03:38.590Z,99593.11
2019-03-03T12:06:13.210Z,99578.72
2019-03-03T12:08:50.499Z,99575.10
2019-03-03T12:12:22.543Z,99572.62
2019-03-03T12:14:56.834Z,99570.37
2019-03-03T12:18:34.228Z,99567.37
2019-03-03T12:21:08.711Z,99549.44
2019-03-03T12:23:42.284Z,99558.73
2019-03-03T12:26:17.185Z,99556.79
2019-03-03T12:28:51.787Z,99543.53
2019-03-03T12:31:26.188Z,99538.87
2019-03-03T12:34:01.716Z,99535.25
2019-03-03T12:36:50.093Z,99539.40
2019-03-03T12:39:29.401Z,99534.53
2019-03-03T12:42:05.847Z,99539.47
2019-03-03T12:44:48.181Z,99522.70
2019-03-03T12:47:22.491Z,99521.52
2019-03-03T12:50:01.048Z,99521.30
2019-03-03T12:52:39.443Z,99510.43
2019-03-03T12:55:16.727Z,99505.30
2019-03-03T12:57:50.790Z,99503.44
2019-03-03T13:00:27.053Z,99492.86
2019-03-03T13:03:10.599Z,99504.07
2019-03-03T13:06:04.379Z,99499.93
2019-03-03T13:08:40.696Z,99497.39
2019-03-03T13:11:33.219Z,99500.55
2019-03-03T13:14:08.514Z,99500.73
2019-03-03T13:16:50.007Z,99500.20
2019-03-03T13:19:27.433Z,99494.80
2019-03-03T13:22:00.924Z,99487.31
2019-03-03T13:27:16.128Z,99469.52
2019-03-03T13:29:51.468Z,99468.88
2019-03-03T13:32:27.778Z,99458.13
2019-03-03T13:35:01.164Z,99454.41
2019-03-03T13:37:51.581Z,99442.15
2019-03-03T13:40:27.010Z,99442.66
2019-03-03T13:42:57.317Z,99436.78
2019-03-03T13:45:33.041Z,99440.05
2019-03-03T13:48:02.382Z,99433.97
2019-03-03T13:50:31.768Z,99454.94
2019-03-03T13:53:01.124Z,99442.20
2019-03-03T13:55:30.565Z,99439.73
2019-03-03T13:57:59.916Z,99440.38
2019-03-03T14:00:29.296Z,99446.00
2019-03-03T14:02:59.380Z,99464.79
2019-03-03T14:05:28.809Z,99444.48
2019-03-03T14:07:58.255Z,99437.13
2019-03-03T14:10:27.599Z,99442.14
2019-03-03T14:12:56.964Z,99450.32
2019-03-03T14:15:26.265Z,99444.37
2019-03-03T14:17:55.620Z,99435.33
2019-03-03T14:20:25.955Z,99441.27
2019-03-03T14:22:58.373Z,99451.95
2019-03-03T14:25:27.728Z,99440.75
2019-03-03T14:27:57.031Z,99421.66
2019-03-03T14:30:27.107Z,99424.98
2019-03-03T14:32:56.460Z,99421.30
2019-03-03T14:35:25.860Z,99412.22
2019-03-03T14:37:55.486Z,99406.85
2019-03-03T14:40:24.801Z,99403.64
2019-03-03T14:42:54.823Z,99400.90
2019-03-03T14:45:25.001Z,99409.77
2019-03-03T14:47:54.492Z,99401.43
2019-03-03T14:50:23.999Z,99392.89
2019-03-03T14:52:53.380Z,99397.41
2019-03-03T14:55:22.793Z,99393.02
2019-03-03T14:57:52.160Z,99395.69
2019-03-03T15:00:28.316Z,99400.72
2019-03-03T15:03:01.439Z,99386.78
2019-03-03T15:05:30.787Z,99386.95
2019-03-03T15:08:00.248Z,99387.36
2019-03-03T15:10:29.548Z,99393.60
2019-03-03T15:12:59.996Z,99394.41
2019-03-03T15:15:30.626Z,99389.59
2019-03-03T15:18:00.073Z,99393.09
2019-03-03T15:20:29.743Z,99390.63
2019-03-03T15:22:59.094Z,99387.18
2019-03-03T15:25:28.393Z,99391.16
2019-03-03T15:27:57.651Z,99384.32
2019-03-03T15:30:26.912Z,99388.48
2019-03-03T15:32:56.279Z,99389.05
2019-03-03T15:35:25.567Z,99383.46
2019-03-03T15:37:55.007Z,99373.72
2019-03-03T15:40:24.535Z,99363.22
2019-03-03T15:42:54.011Z,99364.73
2019-03-03T15:45:23.421Z,99355.87
2019-03-03T15:47:52.842Z,99354.01
2019-03-03T15:50:22.132Z,99345.61
2019-03-03T15:52:51.379Z,99335.87
2019-03-03T15:55:20.690Z,99344.38
2019-03-03T15:57:49.975Z,99341.69
2019-03-03T16:00:22.147Z,99343.22
2019-03-03T16:02:51.459Z,99331.27
2019-03-03T16:05:21.375Z,99335.69
2019-03-03T16:07:50.734Z,99350.80
2019-03-03T16:10:20.038Z,99326.12
2019-03-03T16:12:49.316Z,99323.02
2019-03-03T16:15:18.856Z,99313.36
2019-03-03T16:17:48.244Z,99314.16
2019-03-03T16:20:18.698Z,99298.48
2019-03-03T16:22:48.019Z,99289.56
2019-03-03T16:25:17.980Z,99291.18
2019-03-03T16:27:47.436Z,99283.54
2019-03-03T16:30:18.854Z,99278.64
2019-03-03T16:32:48.244Z,99267.28
2019-03-03T16:35:17.687Z,99259.75
2019-03-03T16:37:47.054Z,99255.55
2019-03-03T16:40:19.390Z,99267.80
2019-03-03T16:42:48.750Z,99260.06
2019-03-03T16:45:18.217Z,99257.71
2019-03-03T16:47:47.583Z,99259.64
2019-03-03T16:50:18.029Z,99255.44
2019-03-03T16:52:47.402Z,99255.75
2019-03-03T16:55:16.888Z,99254.41
2019-03-03T16:57:46.263Z,99251.25
2019-03-03T17:00:18.457Z,99247.67
2019-03-03T17:02:47.788Z,99249.84
2019-03-03T17:05:18.242Z,99240.17
2019-03-03T17:07:47.597Z,99244.37
2019-03-03T17:10:16.913Z,99241.06
2019-03-03T17:12:46.257Z,99245.42
2019-03-03T17:15:18.982Z,99245.55
2019-03-03T17:17:48.342Z,99238.47
2019-03-03T17:20:17.582Z,99234.64
2019-03-03T17:22:46.908Z,99240.34
2019-03-03T17:25:19.433Z,99235.97
2019-03-03T17:27:48.690Z,99238.54
2019-03-03T17:30:20.068Z,99240.86
2019-03-03T17:32:49.336Z,99243.74
2019-03-03T17:35:18.756Z,99241.22
2019-03-03T17:37:48.048Z,99241.70
2019-03-03T17:40:19.229Z,99234.82
2019-03-03T17:42:48.675Z,99234.22
2019-03-03T17:45:19.843Z,99224.78
2019-03-03T17:47:49.300Z,99224.33
2019-03-03T17:50:20.247Z,99222.34
2019-03-03T17:52:49.531Z,99213.41
2019-03-03T17:55:18.857Z,99211.25
2019-03-03T17:57:48.124Z,99230.02
2019-03-03T18:00:20.299Z,99221.30
2019-03-03T18:02:49.660Z,99219.60
2019-03-03T18:05:20.083Z,99206.66
2019-03-03T18:07:49.465Z,99205.37
2019-03-03T18:10:19.123Z,99194.00
2019-03-03T18:12:48.457Z,99185.09
2019-03-03T18:15:17.878Z,99176.74
2019-03-03T18:17:47.233Z,99176.89
2019-03-03T18:20:16.821Z,99172.34
2019-03-03T18:22:46.152Z,99164.67
2019-03-03T18:25:16.131Z,99161.11
2019-03-03T18:27:45.445Z,99154.77
2019-03-03T18:30:18.023Z,99146.73
2019-03-03T18:32:47.299Z,99156.44
2019-03-03T18:35:16.756Z,99145.72
2019-03-03T18:37:46.265Z,99147.39
2019-03-03T18:40:18.066Z,99147.55
2019-03-03T18:42:47.512Z,99139.33
2019-03-03T18:45:17.101Z,99137.16
2019-03-03T18:47:46.505Z,99144.87
2019-03-03T18:50:17.284Z,99140.36
2019-03-03T18:52:46.730Z,99129.45
2019-03-03T18:55:16.720Z,99116.50
2019-03-03T18:57:46.059Z,99119.36
2019-03-03T19:00:19.453Z,99119.13
2019-03-03T19:02:48.740Z,99117.14
2019-03-03T19:05:18.185Z,99121.86
2019-03-03T19:07:47.697Z,99102.02
2019-03-03T19:10:18.032Z,99102.20
2019-03-03T19:12:48.345Z,99108.39
2019-03-03T19:15:18.407Z,99099.25
2019-03-03T19:17:47.731Z,99095.05
2019-03-03T19:20:18.491Z,99094.40
2019-03-03T19:22:47.864Z,99088.00
2019-03-03T19:25:17.292Z,99083.45
2019-03-03T19:27:46.648Z,99076.11
2019-03-03T19:30:22.394Z,99079.84
2019-03-03T19:32:56.567Z,99082.69
2019-03-03T19:35:25.832Z,99069.41
2019-03-03T19:37:55.155Z,99066.61
2019-03-03T19:40:24.469Z,99067.43
2019-03-03T19:42:53.681Z,99069.80
2019-03-03T19:45:26.249Z,99067.94
2019-03-03T19:47:56.490Z,99066.97
2019-03-03T19:50:25.832Z,99071.84
2019-03-03T19:52:55.206Z,99068.46
2019-03-03T19:55:24.600Z,99063.13
2019-03-03T19:57:54.076Z,99059.08
2019-03-03T20:00:35.490Z,99065.63
2019-03-03T20:02:57.544Z,99060.14
2019-03-03T20:05:26.903Z,99057.28
2019-03-03T20:07:56.263Z,99053.44
2019-03-03T20:10:25.624Z,99053.10
2019-03-03T20:12:54.968Z,99050.84
2019-03-03T20:15:24.249Z,99049.32
2019-03-03T20:17:53.645Z,99045.14
2019-03-03T20:20:22.984Z,99050.17
2019-03-03T20:22:52.332Z,99047.83
2019-03-03T20:25:21.693Z,99047.31
2019-03-03T20:27:51.183Z,99051.51
2019-03-03T20:30:20.544Z,99054.86
2019-03-03T20:32:50.523Z,99046.82
2019-03-03T20:35:20.063Z,99040.30
2019-03-03T20:37:49.456Z,99030.42
2019-03-03T20:40:18.872Z,99036.03
2019-03-03T20:42:48.247Z,99027.56
2019-03-03T20:45:20.600Z,99020.92
2019-03-03T20:47:50.045Z,99010.72
2019-03-03T20:50:20.663Z,99004.59
2019-03-03T20:52:50.134Z,99006.64
2019-03-03T20:55:20.520Z,99015.38
2019-03-03T20:57:49.987Z,98993.29
2019-03-03T21:00:22.866Z,98986.38
2019-03-03T21:02:52.219Z,98987.23
2019-03-03T21:05:21.627Z,98993.59
2019-03-03T21:07:52.112Z,98986.34
2019-03-03T21:10:21.591Z,98989.36
2019-03-03T21:12:50.903Z,98986.16
2019-03-03T21:15:20.401Z,98981.23
2019-03-03T21:17:49.713Z,98980.65
2019-03-03T21:20:19.489Z,98974.31
2019-03-03T21:22:48.871Z,98966.23
2019-03-03T21:25:18.362Z,98967.95
2019-03-03T21:27:47.748Z,98956.77
2019-03-03T21:30:20.481Z,98958.23
2019-03-03T21:32:49.816Z,98962.73
2019-03-03T21:35:19.201Z,98960.23
2019-03-03T21:37:48.606Z,98939.53
2019-03-03T21:40:18.834Z,98934.10
2019-03-03T21:42:48.242Z,98926.66
2019-03-03T21:45:19.239Z,98917.16
2019-03-03T21:47:48.618Z,98912.95
2019-03-03T21:50:20.724Z,98904.91
2019-03-03T21:52:50.294Z,98896.79
2019-03-03T21:55:19.728Z,98894.86
2019-03-03T21:57:49.053Z,98882.23
2019-03-03T22:00:24.783Z,98880.00
2019-03-03T22:02:54.798Z,98860.60
2019-03-03T22:05:24.200Z,98853.05
2019-03-03T22:07:53.743Z,98837.52
2019-03-03T22:10:27.112Z,98833.30
2019-03-03T22:12:56.540Z,98834.28
2019-03-03T22:15:25.863Z,98841.08
2019-03-03T22:17:55.358Z,98835.57
2019-03-03T22:20:24.667Z,98835.80
2019-03-03T22:22:54.059Z,98840.33
2019-03-03T22:25:23.422Z,98837.13
2019-03-03T22:27:52.817Z,98834.45
2019-03-03T22:30:22.275Z,98824.07
2019-03-03T22:32:51.616Z,98810.03
2019-03-03T22:35:21.120Z,98804.34
2019-03-03T22:37:50.467Z,98798.02
2019-03-03T22:40:19.819Z,98789.67
2019-03-03T22:42:49.265Z,98804.52
2019-03-03T22:45:18.829Z,98797.85
2019-03-03T22:47:48.270Z,98793.38
2019-03-03T22:50:17.721Z,98788.55
2019-03-03T22:52:47.015Z,98770.80
2019-03-03T22:55:16.674Z,98777.78
2019-03-03T22:57:46.121Z,98776.44
2019-03-03T23:00:37.280Z,98768.59
2019-03-03T23:03:06.603Z,98756.20
2019-03-03T23:05:52.953Z,98756.20
2019-03-03T23:08:33.634Z,98751.19
2019-03-03T23:11:29.167Z,98755.20
2019-03-03T23:14:14.393Z,98758.77
2019-03-03T23:17:06.528Z,98754.75
2019-03-03T23:19:53.629Z,98757.24
2019-03-03T23:22:44.000Z,98762.27
2019-03-03T23:25:58.791Z,98757.24
2019-03-03T23:28:28.098Z,98748.24
2019-03-03T23:30:58.397Z,98743.89
2019-03-03T23:33:28.405Z,98755.30
2019-03-03T23:35:57.768Z,98766.83
2019-03-03T23:38:27.085Z,98763.57
2019-03-03T23:40:56.448Z,98762.31
2019-03-03T23:43:25.818Z,98758.56
2019-03-03T23:45:55.193Z,98755.97
2019-03-03T23:48:24.783Z,98738.81
2019-03-03T23:50:54.647Z,98736.02
2019-03-03T23:53:23.899Z,98736.95
2019-03-03T23:55:53.296Z,98707.92
2019-03-03T23:58:22.603Z,98697.64
